createdAt,value
2019-04-01T00:00:43.222Z,4.62
2019-04-01T00:01:33.599Z,5.87
2019-04-01T00:02:08.377Z,4.78
2019-04-01T00:02:40.911Z,6.47
2019-04-01T00:03:13.470Z,5.30
2019-04-01T00:03:46.747Z,5.28
2019-04-01T00:04:19.605Z,4.37
2019-04-01T00:04:52.143Z,3.92
2019-04-01T00:05:24.645Z,3.55
2019-04-01T00:05:57.498Z,3.75
2019-04-01T00:06:30.028Z,4.00
2019-04-01T00:07:02.879Z,4.40
2019-04-01T00:07:36.105Z,4.40
2019-04-01T00:08:08.638Z,3.50
2019-04-01T00:08:41.551Z,4.00
2019-04-01T00:09:14.083Z,5.12
2019-04-01T00:09:46.626Z,5.75
2019-04-01T00:10:19.163Z,4.58
2019-04-01T00:10:51.678Z,5.65
2019-04-01T00:11:24.578Z,4.70
2019-04-01T00:11:57.899Z,4.30
2019-04-01T00:12:30.442Z,4.05
2019-04-01T00:13:03.091Z,3.60
2019-04-01T00:13:35.626Z,3.50
2019-04-01T00:14:08.521Z,3.80
2019-04-01T00:14:41.066Z,3.45
2019-04-01T00:15:13.879Z,3.50
2019-04-01T00:15:46.410Z,3.80
2019-04-01T00:16:18.958Z,3.47
2019-04-01T00:16:51.490Z,3.58
2019-04-01T00:17:24.029Z,3.17
2019-04-01T00:17:56.966Z,3.10
2019-04-01T00:18:29.842Z,3.35
2019-04-01T00:19:03.681Z,3.80
2019-04-01T00:19:36.443Z,3.50
2019-04-01T00:20:09.078Z,4.55
2019-04-01T00:20:41.604Z,4.50
2019-04-01T00:21:14.128Z,3.85
2019-04-01T00:21:46.971Z,3.33
2019-04-01T00:22:19.490Z,4.45
2019-04-01T00:22:52.162Z,4.17
2019-04-01T00:23:25.106Z,3.90
2019-04-01T00:23:57.650Z,4.20
2019-04-01T00:24:30.187Z,4.15
2019-04-01T00:25:03.062Z,4.28
2019-04-01T00:25:35.590Z,3.95
2019-04-01T00:26:08.107Z,4.37
2019-04-01T00:26:40.962Z,4.65
2019-04-01T00:27:13.511Z,3.42
2019-04-01T00:27:46.438Z,3.72
2019-04-01T00:28:18.983Z,4.67
2019-04-01T00:28:51.969Z,3.62
2019-04-01T00:29:24.903Z,3.50
2019-04-01T00:29:57.890Z,3.42
2019-04-01T00:30:31.250Z,4.00
2019-04-01T00:31:04.137Z,3.67
2019-04-01T00:31:36.657Z,3.58
2019-04-01T00:32:09.628Z,4.83
2019-04-01T00:32:42.090Z,4.72
2019-04-01T00:33:14.939Z,5.85
2019-04-01T00:33:47.757Z,5.28
2019-04-01T00:34:20.631Z,4.53
2019-04-01T00:34:53.503Z,5.58
2019-04-01T00:35:26.030Z,5.90
2019-04-01T00:35:58.594Z,4.80
2019-04-01T00:36:31.128Z,4.37
2019-04-01T00:37:03.672Z,3.80
2019-04-01T00:37:36.203Z,4.05
2019-04-01T00:38:08.790Z,4.10
2019-04-01T00:38:41.326Z,4.05
2019-04-01T00:39:13.875Z,4.65
2019-04-01T00:39:46.402Z,3.70
2019-04-01T00:40:18.938Z,4.75
2019-04-01T00:40:51.890Z,4.60
2019-04-01T00:41:25.083Z,3.60
2019-04-01T00:42:23.306Z,4.60
2019-04-01T00:43:03.600Z,4.08
2019-04-01T00:43:56.839Z,4.78
2019-04-01T00:44:29.370Z,4.28
2019-04-01T00:45:01.920Z,3.58
2019-04-01T00:45:35.759Z,4.35
2019-04-01T00:46:08.783Z,4.45
2019-04-01T00:46:41.362Z,4.58
2019-04-01T00:47:13.894Z,3.95
2019-04-01T00:47:46.449Z,4.50
2019-04-01T00:48:18.975Z,5.60
2019-04-01T00:48:51.502Z,4.10
2019-04-01T00:49:24.093Z,4.60
2019-04-01T00:49:56.662Z,4.70
2019-04-01T00:50:29.550Z,5.12
2019-04-01T00:51:02.527Z,3.65
2019-04-01T00:51:35.159Z,3.62
2019-04-01T00:52:08.065Z,3.90
2019-04-01T00:52:41.247Z,3.87
2019-04-01T00:53:17.774Z,3.80
2019-04-01T00:53:48.531Z,3.95
2019-04-01T00:54:21.427Z,4.80
2019-04-01T00:54:54.255Z,5.10
2019-04-01T00:55:26.782Z,5.12
2019-04-01T00:55:59.692Z,5.75
2019-04-01T00:56:32.505Z,6.45
2019-04-01T00:57:05.039Z,6.42
2019-04-01T00:57:37.640Z,6.78
2019-04-01T00:58:10.543Z,6.00
2019-04-01T00:58:43.085Z,5.80
2019-04-01T00:59:15.614Z,6.65
2019-04-01T00:59:48.459Z,4.85
2019-04-01T01:00:21.207Z,4.58
2019-04-01T01:00:53.745Z,5.20
2019-04-01T01:01:26.272Z,4.97
2019-04-01T01:01:59.183Z,4.60
2019-04-01T01:02:32.126Z,4.37
2019-04-01T01:03:04.687Z,5.05
2019-04-01T01:03:37.525Z,5.92
2019-04-01T01:04:10.149Z,5.97
2019-04-01T01:04:43.064Z,4.78
2019-04-01T01:05:15.607Z,4.85
2019-04-01T01:05:49.266Z,5.72
2019-04-01T01:06:21.798Z,4.87
2019-04-01T01:06:54.330Z,4.80
2019-04-01T01:07:26.884Z,4.60
2019-04-01T01:07:59.401Z,4.70
2019-04-01T01:08:31.959Z,5.65
2019-04-01T01:09:05.510Z,5.03
2019-04-01T01:09:38.053Z,4.42
2019-04-01T01:10:11.057Z,4.95
2019-04-01T01:10:43.574Z,4.20
2019-04-01T01:11:16.115Z,4.92
2019-04-01T01:11:48.647Z,4.30
2019-04-01T01:12:21.497Z,4.28
2019-04-01T01:12:54.036Z,4.30
2019-04-01T01:13:26.935Z,4.05
2019-04-01T01:13:59.491Z,4.50
2019-04-01T01:14:32.022Z,4.40
2019-04-01T01:15:05.390Z,4.20
2019-04-01T01:15:38.219Z,4.42
2019-04-01T01:16:10.751Z,4.70
2019-04-01T01:16:43.282Z,4.55
2019-04-01T01:17:15.870Z,5.97
2019-04-01T01:17:48.352Z,6.65
2019-04-01T01:18:20.867Z,5.62
2019-04-01T01:18:53.414Z,6.17
2019-04-01T01:19:25.986Z,6.60
2019-04-01T01:19:58.513Z,6.00
2019-04-01T01:20:31.047Z,5.70
2019-04-01T01:21:03.594Z,5.85
2019-04-01T01:21:36.807Z,4.87
2019-04-01T01:22:09.801Z,5.30
2019-04-01T01:23:18.013Z,4.95
2019-04-01T01:23:50.552Z,5.17
2019-04-01T01:24:23.075Z,4.62
2019-04-01T01:24:55.639Z,4.25
2019-04-01T01:25:28.454Z,4.25
2019-04-01T01:26:01.361Z,5.15
2019-04-01T01:26:33.898Z,4.12
2019-04-01T01:27:06.574Z,4.10
2019-04-01T01:27:39.435Z,4.62
2019-04-01T01:28:12.033Z,4.65
2019-04-01T01:28:44.594Z,4.55
2019-04-01T01:29:17.408Z,4.55
2019-04-01T01:29:49.945Z,4.53
2019-04-01T01:30:22.616Z,4.70
2019-04-01T01:30:55.143Z,4.72
2019-04-01T01:31:27.677Z,5.08
2019-04-01T01:32:00.218Z,4.83
2019-04-01T01:32:32.755Z,4.60
2019-04-01T01:33:05.282Z,4.75
2019-04-01T01:33:38.140Z,4.55
2019-04-01T01:34:10.808Z,3.95
2019-04-01T01:34:43.928Z,4.10
2019-04-01T01:35:16.791Z,4.33
2019-04-01T01:35:49.346Z,3.83
2019-04-01T01:36:21.872Z,4.20
2019-04-01T01:36:54.517Z,4.50
2019-04-01T01:37:27.255Z,4.60
2019-04-01T01:37:59.798Z,4.35
2019-04-01T01:38:32.374Z,4.47
2019-04-01T01:39:06.441Z,4.40
2019-04-01T01:39:38.973Z,3.47
2019-04-01T01:40:11.503Z,4.10
2019-04-01T01:40:44.023Z,4.55
2019-04-01T01:41:16.596Z,4.37
2019-04-01T01:41:49.118Z,4.55
2019-04-01T01:42:21.641Z,4.90
2019-04-01T01:42:54.475Z,4.70
2019-04-01T01:43:27.345Z,5.25
2019-04-01T01:43:59.975Z,4.05
2019-04-01T01:44:32.537Z,4.55
2019-04-01T01:45:05.693Z,4.00
2019-04-01T01:45:38.226Z,4.50
2019-04-01T01:46:10.946Z,4.47
2019-04-01T01:46:43.508Z,3.72
2019-04-01T01:47:16.053Z,4.45
2019-04-01T01:47:48.574Z,4.47
2019-04-01T01:48:21.245Z,4.17
2019-04-01T01:48:53.979Z,3.87
2019-04-01T01:49:26.514Z,4.55
2019-04-01T01:49:59.047Z,4.83
2019-04-01T01:50:31.570Z,5.03
2019-04-01T01:51:04.125Z,4.90
2019-04-01T01:51:37.078Z,4.28
2019-04-01T01:52:09.649Z,4.60
2019-04-01T01:52:42.170Z,4.37
2019-04-01T01:53:14.702Z,5.12
2019-04-01T01:53:47.231Z,4.17
2019-04-01T01:54:19.779Z,4.22
2019-04-01T01:54:52.818Z,4.20
2019-04-01T01:55:25.346Z,5.20
2019-04-01T01:55:57.882Z,4.05
2019-04-01T01:56:30.411Z,4.47
2019-04-01T01:57:02.934Z,4.58
2019-04-01T01:57:35.486Z,4.20
2019-04-01T01:58:08.018Z,4.90
2019-04-01T01:58:40.553Z,5.20
2019-04-01T01:59:13.078Z,4.87
2019-04-01T01:59:45.989Z,5.03
2019-04-01T02:00:19.450Z,5.12
2019-04-01T02:00:53.139Z,4.97
2019-04-01T02:01:25.974Z,3.92
2019-04-01T02:01:58.814Z,6.17
2019-04-01T02:02:31.675Z,5.90
2019-04-01T02:03:04.250Z,6.05
2019-04-01T02:03:37.149Z,6.35
2019-04-01T02:04:10.128Z,5.87
2019-04-01T02:04:42.656Z,5.10
2019-04-01T02:05:15.173Z,4.42
2019-04-01T02:05:47.720Z,4.72
2019-04-01T02:06:20.238Z,4.37
2019-04-01T02:06:52.788Z,5.20
2019-04-01T02:07:25.976Z,4.70
2019-04-01T02:07:58.515Z,4.70
2019-04-01T02:08:31.382Z,4.80
2019-04-01T02:09:05.567Z,5.17
2019-04-01T02:09:38.139Z,5.20
2019-04-01T02:10:11.171Z,5.55
2019-04-01T02:10:43.707Z,4.85
2019-04-01T02:11:17.041Z,5.60
2019-04-01T02:11:49.575Z,4.58
2019-04-01T02:12:22.093Z,4.50
2019-04-01T02:12:54.995Z,5.62
2019-04-01T02:13:27.960Z,6.83
2019-04-01T02:14:00.555Z,7.05
2019-04-01T02:14:33.076Z,8.10
2019-04-01T02:15:05.972Z,8.50
2019-04-01T02:15:38.844Z,8.28
2019-04-01T02:16:11.695Z,6.72
2019-04-01T02:16:44.228Z,7.75
2019-04-01T02:17:16.751Z,6.40
2019-04-01T02:17:49.583Z,6.50
2019-04-01T02:18:22.114Z,5.80
2019-04-01T02:18:54.647Z,5.95
2019-04-01T02:19:27.226Z,5.60
2019-04-01T02:20:00.367Z,4.95
2019-04-01T02:20:32.969Z,4.78
2019-04-01T02:21:05.511Z,4.97
2019-04-01T02:21:38.047Z,4.50
2019-04-01T02:22:10.582Z,5.30
2019-04-01T02:22:43.109Z,5.72
2019-04-01T02:23:15.647Z,5.95
2019-04-01T02:23:48.187Z,7.05
2019-04-01T02:24:21.055Z,6.47
2019-04-01T02:24:53.613Z,6.30
2019-04-01T02:25:26.510Z,7.90
2019-04-01T02:25:59.387Z,6.85
2019-04-01T02:26:31.926Z,7.08
2019-04-01T02:27:04.446Z,6.47
2019-04-01T02:27:36.982Z,6.80
2019-04-01T02:28:09.506Z,6.20
2019-04-01T02:28:42.411Z,5.90
2019-04-01T02:29:15.297Z,6.40
2019-04-01T02:29:47.839Z,6.03
2019-04-01T02:30:20.871Z,6.20
2019-04-01T02:30:53.408Z,5.90
2019-04-01T02:31:26.001Z,6.28
2019-04-01T02:31:58.578Z,5.53
2019-04-01T02:32:31.098Z,5.53
2019-04-01T02:33:04.037Z,6.30
2019-04-01T02:33:36.576Z,6.17
2019-04-01T02:34:09.122Z,5.42
2019-04-01T02:34:41.690Z,5.35
2019-04-01T02:35:14.496Z,5.15
2019-04-01T02:35:47.364Z,6.45
2019-04-01T02:36:19.912Z,5.80
2019-04-01T02:36:52.442Z,5.12
2019-04-01T02:37:24.962Z,4.65
2019-04-01T02:37:57.498Z,5.58
2019-04-01T02:38:30.180Z,5.47
2019-04-01T02:39:05.538Z,5.20
2019-04-01T02:39:38.036Z,4.87
2019-04-01T02:40:10.684Z,4.87
2019-04-01T02:40:43.208Z,5.53
2019-04-01T02:41:15.762Z,4.65
2019-04-01T02:41:50.216Z,5.45
2019-04-01T02:42:22.763Z,5.37
2019-04-01T02:42:56.402Z,5.05
2019-04-01T02:43:28.958Z,4.12
2019-04-01T02:44:01.459Z,4.60
2019-04-01T02:44:34.323Z,4.12
2019-04-01T02:45:07.055Z,4.62
2019-04-01T02:45:39.591Z,5.33
2019-04-01T02:46:12.115Z,3.87
2019-04-01T02:46:44.660Z,4.45
2019-04-01T02:47:17.189Z,4.95
2019-04-01T02:47:50.159Z,4.20
2019-04-01T02:48:22.691Z,4.15
2019-04-01T02:48:55.226Z,4.80
2019-04-01T02:49:28.420Z,4.42
2019-04-01T02:50:01.598Z,4.10
2019-04-01T02:50:34.257Z,4.33
2019-04-01T02:51:07.180Z,4.70
2019-04-01T02:51:39.767Z,7.30
2019-04-01T02:52:12.481Z,8.38
2019-04-01T02:52:45.386Z,8.80
2019-04-01T02:53:17.910Z,7.62
2019-04-01T02:53:50.798Z,6.70
2019-04-01T02:54:23.366Z,5.58
2019-04-01T02:54:55.883Z,5.72
2019-04-01T02:55:28.507Z,6.25
2019-04-01T02:56:01.088Z,5.53
2019-04-01T02:56:33.596Z,5.33
2019-04-01T02:57:06.202Z,4.50
2019-04-01T02:57:39.116Z,5.20
2019-04-01T02:58:11.991Z,4.95
2019-04-01T02:58:44.908Z,3.80
2019-04-01T02:59:17.461Z,4.70
2019-04-01T02:59:49.984Z,4.55
2019-04-01T03:00:22.523Z,5.67
2019-04-01T03:00:55.407Z,4.70
2019-04-01T03:01:27.939Z,4.78
2019-04-01T03:02:00.899Z,4.25
2019-04-01T03:02:33.418Z,4.40
2019-04-01T03:03:06.127Z,4.95
2019-04-01T03:03:38.673Z,5.50
2019-04-01T03:04:11.196Z,5.28
2019-04-01T03:04:43.740Z,5.42
2019-04-01T03:05:16.280Z,4.62
2019-04-01T03:05:48.796Z,4.22
2019-04-01T03:06:21.650Z,4.72
2019-04-01T03:06:54.187Z,4.85
2019-04-01T03:07:27.039Z,4.87
2019-04-01T03:07:59.868Z,4.85
2019-04-01T03:08:32.910Z,3.92
2019-04-01T03:09:06.641Z,4.30
2019-04-01T03:09:39.299Z,4.85
2019-04-01T03:10:11.834Z,8.30
2019-04-01T03:10:44.390Z,10.65
2019-04-01T03:11:16.906Z,10.03
2019-04-01T03:11:50.180Z,9.73
2019-04-01T03:12:22.715Z,7.90
2019-04-01T03:12:56.139Z,6.50
2019-04-01T03:13:28.662Z,6.22
2019-04-01T03:14:01.218Z,5.75
2019-04-01T03:14:34.105Z,5.30
2019-04-01T03:15:06.632Z,4.92
2019-04-01T03:15:39.163Z,4.35
2019-04-01T03:16:11.684Z,4.53
2019-04-01T03:16:44.567Z,4.65
2019-04-01T03:17:17.101Z,5.20
2019-04-01T03:17:49.785Z,5.58
2019-04-01T03:18:22.314Z,6.30
2019-04-01T03:18:54.837Z,5.80
2019-04-01T03:19:27.405Z,6.42
2019-04-01T03:19:59.932Z,4.95
2019-04-01T03:20:33.176Z,4.97
2019-04-01T03:21:05.846Z,8.23
2019-04-01T03:21:38.379Z,9.15
2019-04-01T03:22:10.903Z,11.90
2019-04-01T03:22:43.450Z,14.07
2019-04-01T03:23:15.987Z,14.70
2019-04-01T03:23:48.515Z,16.62
2019-04-01T03:24:21.054Z,13.90
2019-04-01T03:24:53.767Z,11.00
2019-04-01T03:25:26.295Z,8.70
2019-04-01T03:26:01.012Z,8.00
2019-04-01T03:26:33.469Z,7.45
2019-04-01T03:27:05.984Z,9.20
2019-04-01T03:27:38.515Z,7.72
2019-04-01T03:28:11.370Z,7.60
2019-04-01T03:28:44.184Z,9.03
2019-04-01T03:29:17.076Z,9.53
2019-04-01T03:29:49.605Z,10.25
2019-04-01T03:30:22.226Z,9.00
2019-04-01T03:30:54.975Z,10.85
2019-04-01T03:31:27.530Z,10.05
2019-04-01T03:32:00.087Z,7.65
2019-04-01T03:32:32.603Z,6.92
2019-04-01T03:33:05.131Z,7.70
2019-04-01T03:33:37.730Z,8.15
2019-04-01T03:34:10.319Z,8.75
2019-04-01T03:34:43.203Z,6.87
2019-04-01T03:35:15.757Z,7.45
2019-04-01T03:35:48.311Z,7.40
2019-04-01T03:36:20.857Z,6.78
2019-04-01T03:36:53.802Z,6.33
2019-04-01T03:37:26.330Z,7.42
2019-04-01T03:37:58.850Z,8.58
2019-04-01T03:38:31.746Z,11.78
2019-04-01T03:39:06.127Z,12.55
2019-04-01T03:39:38.835Z,12.55
2019-04-01T03:40:11.693Z,12.63
2019-04-01T03:40:44.225Z,14.18
2019-04-01T03:41:16.781Z,13.75
2019-04-01T03:41:49.318Z,12.30
2019-04-01T03:42:21.946Z,9.28
2019-04-01T03:42:54.486Z,9.78
2019-04-01T03:43:27.032Z,11.68
2019-04-01T03:43:59.551Z,9.75
2019-04-01T03:44:32.080Z,8.83
2019-04-01T03:45:05.048Z,7.35
2019-04-01T03:45:37.572Z,10.00
2019-04-01T03:46:10.476Z,13.03
2019-04-01T03:46:43.442Z,13.45
2019-04-01T03:47:15.986Z,14.80
2019-04-01T03:47:48.918Z,14.73
2019-04-01T03:48:21.443Z,13.53
2019-04-01T03:48:53.990Z,15.60
2019-04-01T03:49:27.389Z,13.88
2019-04-01T03:50:00.547Z,12.70
2019-04-01T03:50:33.327Z,12.85
2019-04-01T03:51:05.860Z,9.90
2019-04-01T03:51:38.397Z,7.37
2019-04-01T03:52:11.153Z,6.47
2019-04-01T03:52:44.164Z,6.65
2019-04-01T03:53:16.686Z,5.40
2019-04-01T03:53:49.218Z,4.78
2019-04-01T03:54:22.095Z,4.90
2019-04-01T03:54:54.624Z,5.17
2019-04-01T03:55:27.515Z,5.15
2019-04-01T03:56:00.404Z,4.60
2019-04-01T03:56:32.991Z,5.87
2019-04-01T03:57:05.842Z,5.08
2019-04-01T03:57:38.424Z,6.17
2019-04-01T03:58:11.086Z,6.87
2019-04-01T03:58:43.615Z,7.75
2019-04-01T03:59:16.146Z,7.72
2019-04-01T03:59:48.750Z,7.40
2019-04-01T04:00:21.426Z,7.78
2019-04-01T04:00:54.419Z,9.03
2019-04-01T04:01:30.432Z,8.78
2019-04-01T04:02:01.354Z,8.63
2019-04-01T04:02:33.891Z,10.45
2019-04-01T04:03:06.556Z,9.95
2019-04-01T04:03:39.094Z,9.90
2019-04-01T04:04:11.985Z,9.00
2019-04-01T04:04:44.557Z,7.95
2019-04-01T04:05:17.143Z,6.62
2019-04-01T04:05:49.798Z,8.70
2019-04-01T04:06:23.004Z,6.75
2019-04-01T04:06:55.547Z,6.00
2019-04-01T04:07:28.842Z,5.60
2019-04-01T04:08:02.126Z,7.70
2019-04-01T04:08:35.058Z,9.28
2019-04-01T04:09:07.858Z,9.30
2019-04-01T04:09:40.730Z,7.85
2019-04-01T04:10:13.280Z,8.00
2019-04-01T04:10:46.106Z,7.75
2019-04-01T04:11:18.655Z,7.25
2019-04-01T04:11:51.200Z,8.25
2019-04-01T04:12:23.733Z,6.12
2019-04-01T04:12:56.265Z,5.70
2019-04-01T04:13:29.258Z,5.40
2019-04-01T04:14:01.748Z,7.90
2019-04-01T04:14:34.286Z,6.17
2019-04-01T04:15:07.292Z,5.78
2019-04-01T04:15:39.839Z,6.80
2019-04-01T04:16:12.735Z,6.20
2019-04-01T04:16:45.250Z,6.40
2019-04-01T04:17:17.800Z,5.90
2019-04-01T04:17:50.709Z,5.08
2019-04-01T04:18:23.256Z,5.35
2019-04-01T04:18:55.783Z,4.10
2019-04-01T04:19:28.359Z,4.55
2019-04-01T04:20:00.904Z,4.65
2019-04-01T04:20:33.450Z,4.25
2019-04-01T04:21:06.456Z,4.97
2019-04-01T04:21:38.997Z,4.58
2019-04-01T04:22:11.515Z,4.20
2019-04-01T04:22:44.046Z,4.67
2019-04-01T04:23:16.907Z,3.85
2019-04-01T04:23:49.520Z,4.17
2019-04-01T04:24:22.550Z,3.95
2019-04-01T04:24:55.112Z,4.70
2019-04-01T04:25:28.479Z,4.80
2019-04-01T04:26:01.190Z,5.10
2019-04-01T04:26:33.738Z,4.40
2019-04-01T04:27:10.732Z,5.10
2019-04-01T04:27:40.586Z,5.53
2019-04-01T04:28:13.483Z,5.55
2019-04-01T04:28:46.004Z,4.85
2019-04-01T04:29:18.530Z,5.35
2019-04-01T04:29:51.067Z,4.33
2019-04-01T04:30:23.753Z,5.28
2019-04-01T04:30:56.264Z,4.87
2019-04-01T04:31:28.812Z,5.25
2019-04-01T04:32:01.666Z,6.55
2019-04-01T04:32:34.195Z,6.10
2019-04-01T04:33:06.733Z,7.35
2019-04-01T04:33:39.603Z,6.78
2019-04-01T04:34:12.519Z,6.10
2019-04-01T04:34:45.055Z,8.03
2019-04-01T04:35:17.583Z,7.00
2019-04-01T04:35:50.152Z,5.80
2019-04-01T04:36:22.721Z,6.72
2019-04-01T04:36:55.239Z,6.53
2019-04-01T04:37:27.773Z,6.25
2019-04-01T04:38:00.295Z,5.10
2019-04-01T04:38:32.858Z,4.85
2019-04-01T04:39:05.814Z,5.70
2019-04-01T04:39:38.465Z,5.62
2019-04-01T04:40:11.125Z,5.30
2019-04-01T04:40:44.071Z,5.60
2019-04-01T04:41:16.619Z,6.20
2019-04-01T04:41:49.151Z,5.45
2019-04-01T04:42:21.687Z,5.70
2019-04-01T04:42:54.574Z,5.30
2019-04-01T04:43:27.451Z,5.78
2019-04-01T04:44:00.076Z,5.40
2019-04-01T04:44:32.982Z,5.28
2019-04-01T04:45:06.043Z,5.40
2019-04-01T04:45:38.575Z,4.92
2019-04-01T04:46:11.110Z,5.15
2019-04-01T04:46:44.374Z,4.85
2019-04-01T04:47:16.898Z,5.03
2019-04-01T04:47:49.804Z,4.72
2019-04-01T04:48:22.716Z,4.55
2019-04-01T04:48:55.347Z,4.95
2019-04-01T04:49:28.202Z,5.30
2019-04-01T04:50:01.079Z,3.75
2019-04-01T04:50:33.623Z,4.12
2019-04-01T04:51:06.147Z,4.60
2019-04-01T04:51:38.973Z,4.40
2019-04-01T04:52:11.848Z,4.67
2019-04-01T04:52:44.491Z,4.70
2019-04-01T04:53:17.028Z,4.03
2019-04-01T04:53:49.706Z,4.85
2019-04-01T04:54:22.236Z,4.05
2019-04-01T04:54:54.749Z,4.62
2019-04-01T04:55:27.945Z,5.47
2019-04-01T04:56:00.479Z,4.67
2019-04-01T04:56:33.006Z,4.95
2019-04-01T04:57:05.535Z,4.97
2019-04-01T04:57:38.399Z,4.65
2019-04-01T04:58:10.946Z,4.75
2019-04-01T04:58:43.473Z,4.95
2019-04-01T04:59:16.007Z,4.95
2019-04-01T04:59:48.932Z,5.15
2019-04-01T05:00:21.455Z,4.50
2019-04-01T05:00:54.300Z,4.35
2019-04-01T05:01:26.846Z,4.37
2019-04-01T05:01:59.727Z,3.90
2019-04-01T05:02:32.640Z,4.62
2019-04-01T05:03:05.191Z,4.03
2019-04-01T05:03:37.832Z,5.00
2019-04-01T05:04:10.692Z,4.30
2019-04-01T05:04:43.213Z,3.87
2019-04-01T05:05:16.066Z,4.45
2019-04-01T05:05:48.950Z,4.72
2019-04-01T05:06:21.471Z,4.78
2019-04-01T05:06:55.280Z,4.75
2019-04-01T05:07:31.288Z,3.80
2019-04-01T05:08:02.838Z,4.58
2019-04-01T05:08:35.785Z,4.47
2019-04-01T05:09:09.072Z,3.92
2019-04-01T05:09:41.600Z,4.30
2019-04-01T05:10:14.247Z,3.90
2019-04-01T05:10:47.182Z,4.37
2019-04-01T05:11:19.706Z,4.47
2019-04-01T05:11:52.235Z,4.50
2019-04-01T05:12:24.785Z,4.22
2019-04-01T05:12:57.318Z,4.20
2019-04-01T05:13:29.850Z,5.28
2019-04-01T05:14:02.857Z,4.70
2019-04-01T05:14:35.677Z,4.75
2019-04-01T05:15:08.219Z,5.05
2019-04-01T05:15:40.755Z,5.20
2019-04-01T05:16:13.296Z,3.83
2019-04-01T05:16:45.839Z,4.62
2019-04-01T05:17:18.372Z,5.00
2019-04-01T05:17:50.902Z,4.92
2019-04-01T05:18:24.099Z,5.35
2019-04-01T05:18:56.623Z,5.40
2019-04-01T05:19:29.847Z,5.05
2019-04-01T05:20:02.968Z,5.42
2019-04-01T05:20:38.092Z,5.17
2019-04-01T05:21:11.935Z,4.87
2019-04-01T05:21:45.199Z,4.62
2019-04-01T05:22:21.258Z,4.75
2019-04-01T05:22:54.189Z,4.83
2019-04-01T05:23:27.211Z,5.37
2019-04-01T05:24:00.373Z,5.70
2019-04-01T05:24:33.795Z,5.15
2019-04-01T05:25:06.782Z,5.00
2019-04-01T05:25:39.311Z,6.53
2019-04-01T05:26:12.487Z,5.00
2019-04-01T05:26:46.822Z,5.80
2019-04-01T05:27:23.459Z,4.87
2019-04-01T05:27:58.311Z,5.12
2019-04-01T05:28:33.343Z,5.40
2019-04-01T05:29:05.986Z,6.20
2019-04-01T05:29:40.234Z,5.62
2019-04-01T05:30:12.767Z,6.50
2019-04-01T05:30:47.794Z,6.42
2019-04-01T05:31:24.891Z,6.35
2019-04-01T05:31:58.530Z,6.70
2019-04-01T05:32:33.768Z,5.55
2019-04-01T05:33:06.628Z,6.70
2019-04-01T05:33:54.849Z,8.13
2019-04-01T05:34:19.707Z,9.60
2019-04-01T05:34:55.531Z,8.10
2019-04-01T05:35:30.358Z,7.58
2019-04-01T05:36:03.207Z,9.35
2019-04-01T05:36:35.847Z,9.30
2019-04-01T05:37:09.064Z,11.30
2019-04-01T05:37:42.157Z,9.65
2019-04-01T05:38:15.682Z,9.43
2019-04-01T05:38:48.212Z,11.60
2019-04-01T05:39:20.851Z,11.53
2019-04-01T05:39:53.996Z,10.58
2019-04-01T05:40:27.227Z,10.43
2019-04-01T05:40:59.891Z,9.33
2019-04-01T05:41:32.774Z,10.93
2019-04-01T05:42:05.301Z,10.40
2019-04-01T05:42:37.865Z,10.55
2019-04-01T05:43:10.380Z,9.53
2019-04-01T05:43:43.518Z,9.80
2019-04-01T05:44:16.275Z,8.48
2019-04-01T05:44:48.810Z,9.30
2019-04-01T05:45:21.722Z,9.58
2019-04-01T05:45:54.290Z,9.15
2019-04-01T05:46:26.837Z,10.03
2019-04-01T05:46:59.738Z,9.38
2019-04-01T05:47:39.442Z,8.60
2019-04-01T05:48:12.891Z,9.00
2019-04-01T05:48:45.433Z,9.20
2019-04-01T05:49:18.450Z,9.35
2019-04-01T05:49:51.659Z,8.68
2019-04-01T05:50:24.315Z,7.90
2019-04-01T05:50:57.196Z,6.80
2019-04-01T05:51:29.918Z,7.17
2019-04-01T05:52:02.938Z,7.33
2019-04-01T05:52:35.474Z,6.65
2019-04-01T05:53:08.027Z,7.20
2019-04-01T05:53:41.118Z,6.05
2019-04-01T05:54:13.987Z,6.03
2019-04-01T05:54:46.902Z,6.20
2019-04-01T05:55:19.451Z,5.30
2019-04-01T05:55:52.194Z,5.08
2019-04-01T05:56:24.946Z,5.28
2019-04-01T05:56:57.686Z,5.35
2019-04-01T05:57:30.219Z,4.78
2019-04-01T05:58:02.764Z,4.42
2019-04-01T05:58:35.988Z,3.98
2019-04-01T05:59:08.530Z,3.52
2019-04-01T05:59:41.105Z,3.80
2019-04-01T06:00:20.795Z,3.65
2019-04-01T06:00:59.411Z,4.20
2019-04-01T06:01:36.104Z,3.50
2019-04-01T06:02:08.844Z,3.80
2019-04-01T06:02:41.985Z,3.92
2019-04-01T06:03:14.560Z,4.10
2019-04-01T06:03:47.092Z,4.15
2019-04-01T06:04:19.638Z,4.03
2019-04-01T06:04:52.154Z,3.30
2019-04-01T06:05:24.694Z,4.35
2019-04-01T06:05:57.895Z,3.58
2019-04-01T06:06:30.414Z,3.50
2019-04-01T06:07:03.008Z,3.70
2019-04-01T06:07:35.567Z,4.20
2019-04-01T06:08:09.076Z,3.92
2019-04-01T06:08:41.701Z,3.58
2019-04-01T06:09:15.227Z,3.50
2019-04-01T06:09:47.955Z,3.50
2019-04-01T06:10:20.852Z,3.35
2019-04-01T06:10:53.407Z,3.67
2019-04-01T06:11:26.638Z,3.45
2019-04-01T06:11:59.158Z,3.95
2019-04-01T06:12:31.724Z,4.08
2019-04-01T06:13:04.254Z,3.67
2019-04-01T06:13:36.815Z,3.55
2019-04-01T06:14:09.351Z,3.92
2019-04-01T06:14:41.899Z,3.83
2019-04-01T06:15:14.419Z,3.27
2019-04-01T06:15:47.651Z,3.85
2019-04-01T06:16:20.146Z,3.40
2019-04-01T06:16:54.443Z,3.25
2019-04-01T06:17:26.966Z,3.83
2019-04-01T06:17:59.521Z,3.35
2019-04-01T06:18:32.430Z,3.50
2019-04-01T06:19:06.138Z,3.37
2019-04-01T06:19:38.778Z,3.40
2019-04-01T06:20:11.315Z,3.45
2019-04-01T06:20:44.393Z,3.75
2019-04-01T06:21:17.024Z,3.30
2019-04-01T06:21:50.063Z,3.87
2019-04-01T06:22:22.607Z,3.15
2019-04-01T06:22:55.238Z,3.17
2019-04-01T06:23:28.343Z,3.60
2019-04-01T06:24:00.884Z,4.83
2019-04-01T06:24:33.415Z,3.30
2019-04-01T06:25:06.745Z,5.05
2019-04-01T06:25:39.283Z,3.95
2019-04-01T06:26:12.210Z,3.20
2019-04-01T06:26:44.758Z,4.50
2019-04-01T06:27:17.824Z,3.40
2019-04-01T06:27:50.373Z,4.00
2019-04-01T06:28:23.218Z,3.87
2019-04-01T06:28:56.325Z,3.62
2019-04-01T06:29:29.266Z,4.12
2019-04-01T06:30:01.873Z,3.08
2019-04-01T06:30:34.840Z,3.85
2019-04-01T06:31:07.358Z,3.95
2019-04-01T06:31:39.883Z,3.90
2019-04-01T06:32:12.413Z,4.33
2019-04-01T06:32:44.941Z,4.15
2019-04-01T06:33:17.558Z,3.77
2019-04-01T06:33:50.091Z,3.50
2019-04-01T06:34:22.910Z,3.62
2019-04-01T06:34:56.970Z,4.05
2019-04-01T06:35:30.219Z,3.50
2019-04-01T06:36:03.855Z,3.62
2019-04-01T06:36:38.809Z,4.22
2019-04-01T06:37:11.411Z,4.20
2019-04-01T06:37:43.952Z,3.75
2019-04-01T06:38:16.492Z,4.47
2019-04-01T06:38:49.029Z,4.12
2019-04-01T06:39:21.891Z,4.10
2019-04-01T06:39:54.761Z,4.33
2019-04-01T06:40:27.302Z,4.00
2019-04-01T06:40:59.868Z,4.70
2019-04-01T06:41:32.863Z,4.20
2019-04-01T06:42:07.156Z,4.45
2019-04-01T06:42:39.739Z,4.33
2019-04-01T06:43:12.272Z,4.83
2019-04-01T06:43:45.158Z,4.85
2019-04-01T06:44:17.947Z,4.22
2019-04-01T06:44:50.477Z,4.95
2019-04-01T06:45:23.362Z,5.47
2019-04-01T06:45:55.907Z,4.35
2019-04-01T06:46:28.547Z,4.95
2019-04-01T06:47:01.074Z,5.10
2019-04-01T06:47:33.618Z,5.87
2019-04-01T06:48:06.162Z,5.12
2019-04-01T06:48:38.797Z,5.20
2019-04-01T06:49:11.326Z,5.80
2019-04-01T06:49:43.855Z,5.90
2019-04-01T06:50:16.383Z,4.65
2019-04-01T06:50:48.941Z,5.35
2019-04-01T06:51:21.490Z,5.35
2019-04-01T06:51:57.129Z,4.87
2019-04-01T06:52:29.995Z,5.30
2019-04-01T06:53:02.681Z,5.37
2019-04-01T06:53:35.194Z,5.47
2019-04-01T06:54:08.519Z,5.15
2019-04-01T06:54:41.345Z,5.22
2019-04-01T06:55:13.868Z,5.42
2019-04-01T06:55:46.779Z,5.72
2019-04-01T06:56:19.662Z,5.75
2019-04-01T06:56:52.182Z,5.25
2019-04-01T06:57:25.202Z,5.15
2019-04-01T06:57:57.741Z,5.42
2019-04-01T06:58:30.604Z,4.90
2019-04-01T06:59:03.486Z,5.30
2019-04-01T06:59:36.538Z,4.40
2019-04-01T07:00:09.789Z,4.75
2019-04-01T07:00:42.325Z,5.83
2019-04-01T07:01:15.284Z,5.45
2019-04-01T07:01:48.157Z,5.92
2019-04-01T07:02:21.055Z,4.80
2019-04-01T07:02:53.939Z,4.95
2019-04-01T07:03:26.664Z,4.60
2019-04-01T07:03:59.211Z,5.10
2019-04-01T07:04:31.734Z,5.17
2019-04-01T07:05:04.671Z,6.03
2019-04-01T07:05:37.285Z,5.22
2019-04-01T07:06:09.758Z,5.20
2019-04-01T07:06:42.299Z,4.97
2019-04-01T07:07:19.142Z,5.17
2019-04-01T07:07:49.284Z,5.45
2019-04-01T07:08:21.843Z,5.37
2019-04-01T07:08:54.370Z,4.95
2019-04-01T07:09:27.011Z,4.65
2019-04-01T07:09:59.638Z,4.60
2019-04-01T07:10:33.060Z,4.50
2019-04-01T07:11:05.831Z,5.15
2019-04-01T07:11:38.406Z,4.53
2019-04-01T07:12:11.016Z,4.47
2019-04-01T07:12:43.586Z,5.30
2019-04-01T07:13:16.244Z,4.62
2019-04-01T07:13:49.542Z,4.53
2019-04-01T07:14:22.439Z,4.78
2019-04-01T07:14:54.969Z,4.12
2019-04-01T07:15:27.516Z,3.87
2019-04-01T07:16:14.310Z,4.90
2019-04-01T07:16:34.991Z,4.62
2019-04-01T07:17:08.119Z,3.75
2019-04-01T07:17:41.543Z,4.33
2019-04-01T07:18:14.106Z,4.55
2019-04-01T07:18:46.622Z,4.30